sensor_id;sensor_type;location;lat;lon;timestamp;P1;durP1;ratioP1;P2;durP2;ratioP2
15482;SDS011;7843;50.330;7.312;2023-01-10T00:00:24;0.60;;;0.40;;
15482;SDS011;7843;50.330;7.312;2023-01-10T00:02:57;0.93;;;0.38;;
15482;SDS011;7843;50.330;7.312;2023-01-10T00:05:24;0.90;;;0.30;;
15482;SDS011;7843;50.330;7.312;2023-01-10T00:07:50;0.35;;;0.30;;
15482;SDS011;7843;50.330;7.312;2023-01-10T00:10:17;0.40;;;0.40;;
15482;SDS011;7843;50.330;7.312;2023-01-10T00:12:44;0.40;;;0.40;;
15482;SDS011;7843;50.330;7.312;2023-01-10T00:15:32;0.30;;;0.30;;
15482;SDS011;7843;50.330;7.312;2023-01-10T00:18:01;0.30;;;0.30;;
15482;SDS011;7843;50.330;7.312;2023-01-10T00:20:28;0.40;;;0.40;;
15482;SDS011;7843;50.330;7.312;2023-01-10T00:22:55;0.30;;;0.30;;
15482;SDS011;7843;50.330;7.312;2023-01-10T00:25:22;1.40;;;0.45;;
15482;SDS011;7843;50.330;7.312;2023-01-10T00:27:51;0.45;;;0.43;;
15482;SDS011;7843;50.330;7.312;2023-01-10T00:30:41;0.75;;;0.55;;
15482;SDS011;7843;50.330;7.312;2023-01-10T00:33:08;2.30;;;0.68;;
15482;SDS011;7843;50.330;7.312;2023-01-10T00:35:42;0.70;;;0.55;;
15482;SDS011;7843;50.330;7.312;2023-01-10T00:38:08;2.20;;;0.80;;
15482;SDS011;7843;50.330;7.312;2023-01-10T00:40:35;1.90;;;0.70;;
15482;SDS011;7843;50.330;7.312;2023-01-10T00:43:02;0.98;;;0.70;;
15482;SDS011;7843;50.330;7.312;2023-01-10T00:45:47;0.75;;;0.70;;
15482;SDS011;7843;50.330;7.312;2023-01-10T00:48:14;1.30;;;0.60;;
15482;SDS011;7843;50.330;7.312;2023-01-10T00:50:42;1.13;;;0.70;;
15482;SDS011;7843;50.330;7.312;2023-01-10T00:53:09;1.25;;;0.85;;
15482;SDS011;7843;50.330;7.312;2023-01-10T00:55:35;3.20;;;1.30;;
15482;SDS011;7843;50.330;7.312;2023-01-10T00:58:02;3.08;;;1.02;;
15482;SDS011;7843;50.330;7.312;2023-01-10T01:00:29;2.85;;;1.05;;
15482;SDS011;7843;50.330;7.312;2023-01-10T01:02:56;2.60;;;1.10;;
15482;SDS011;7843;50.330;7.312;2023-01-10T01:05:22;2.37;;;0.73;;
15482;SDS011;7843;50.330;7.312;2023-01-10T01:07:50;1.15;;;0.95;;
15482;SDS011;7843;50.330;7.312;2023-01-10T01:10:17;2.67;;;1.42;;
15482;SDS011;7843;50.330;7.312;2023-01-10T01:12:54;3.22;;;1.00;;
15482;SDS011;7843;50.330;7.312;2023-01-10T01:15:31;2.90;;;1.17;;
15482;SDS011;7843;50.330;7.312;2023-01-10T01:18:00;4.55;;;1.10;;
15482;SDS011;7843;50.330;7.312;2023-01-10T01:20:28;2.75;;;1.20;;
15482;SDS011;7843;50.330;7.312;2023-01-10T01:22:54;1.10;;;0.83;;
15482;SDS011;7843;50.330;7.312;2023-01-10T01:25:21;2.05;;;0.80;;
15482;SDS011;7843;50.330;7.312;2023-01-10T01:27:48;3.63;;;1.10;;
15482;SDS011;7843;50.330;7.312;2023-01-10T01:30:15;3.85;;;1.05;;
15482;SDS011;7843;50.330;7.312;2023-01-10T01:32:41;2.58;;;1.00;;
15482;SDS011;7843;50.330;7.312;2023-01-10T01:35:09;3.60;;;1.10;;
15482;SDS011;7843;50.330;7.312;2023-01-10T01:37:39;3.47;;;1.27;;
15482;SDS011;7843;50.330;7.312;2023-01-10T01:40:07;3.25;;;1.05;;
15482;SDS011;7843;50.330;7.312;2023-01-10T01:42:38;1.90;;;0.90;;
15482;SDS011;7843;50.330;7.312;2023-01-10T01:47:48;4.57;;;1.30;;
15482;SDS011;7843;50.330;7.312;2023-01-10T01:53:24;1.83;;;1.13;;
15482;SDS011;7843;50.330;7.312;2023-01-10T01:58:57;4.82;;;1.30;;
15482;SDS011;7843;50.330;7.312;2023-01-10T02:01:38;1.77;;;0.75;;
15482;SDS011;7843;50.330;7.312;2023-01-10T02:04:09;2.10;;;0.80;;
15482;SDS011;7843;50.330;7.312;2023-01-10T02:06:40;2.83;;;0.93;;
15482;SDS011;7843;50.330;7.312;2023-01-10T02:09:11;4.80;;;1.42;;
15482;SDS011;7843;50.330;7.312;2023-01-10T02:12:01;4.32;;;1.67;;
15482;SDS011;7843;50.330;7.312;2023-01-10T02:14:29;2.53;;;1.00;;
15482;SDS011;7843;50.330;7.312;2023-01-10T02:16:56;2.67;;;0.95;;
15482;SDS011;7843;50.330;7.312;2023-01-10T02:19:26;5.95;;;1.15;;
15482;SDS011;7843;50.330;7.312;2023-01-10T02:22:19;6.85;;;1.45;;
15482;SDS011;7843;50.330;7.312;2023-01-10T02:33:46;6.00;;;1.58;;
15482;SDS011;7843;50.330;7.312;2023-01-10T02:36:34;5.82;;;1.55;;
15482;SDS011;7843;50.330;7.312;2023-01-10T02:44:23;3.60;;;1.40;;
15482;SDS011;7843;50.330;7.312;2023-01-10T02:46:56;1.42;;;1.00;;
15482;SDS011;7843;50.330;7.312;2023-01-10T02:49:22;5.37;;;1.10;;
15482;SDS011;7843;50.330;7.312;2023-01-10T02:51:49;2.95;;;1.20;;
15482;SDS011;7843;50.330;7.312;2023-01-10T02:54:20;3.17;;;1.60;;
15482;SDS011;7843;50.330;7.312;2023-01-10T02:59:48;3.28;;;1.25;;
15482;SDS011;7843;50.330;7.312;2023-01-10T03:02:55;3.40;;;1.30;;
15482;SDS011;7843;50.330;7.312;2023-01-10T03:05:48;1.45;;;1.25;;
15482;SDS011;7843;50.330;7.312;2023-01-10T03:08:34;4.13;;;1.65;;
15482;SDS011;7843;50.330;7.312;2023-01-10T03:11:07;3.35;;;1.27;;
15482;SDS011;7843;50.330;7.312;2023-01-10T03:13:50;4.80;;;1.30;;
15482;SDS011;7843;50.330;7.312;2023-01-10T03:16:22;4.60;;;1.50;;
15482;SDS011;7843;50.330;7.312;2023-01-10T03:18:53;3.55;;;1.38;;
15482;SDS011;7843;50.330;7.312;2023-01-10T03:21:21;3.22;;;1.65;;
15482;SDS011;7843;50.330;7.312;2023-01-10T03:23:52;4.28;;;1.55;;
15482;SDS011;7843;50.330;7.312;2023-01-10T03:26:25;4.73;;;1.53;;
15482;SDS011;7843;50.330;7.312;2023-01-10T03:28:57;5.57;;;1.75;;
15482;SDS011;7843;50.330;7.312;2023-01-10T03:31:35;3.15;;;1.58;;
15482;SDS011;7843;50.330;7.312;2023-01-10T03:34:15;2.80;;;1.33;;
15482;SDS011;7843;50.330;7.312;2023-01-10T03:50:07;1.60;;;1.10;;
15482;SDS011;7843;50.330;7.312;2023-01-10T03:52:40;2.85;;;1.23;;
15482;SDS011;7843;50.330;7.312;2023-01-10T03:55:11;2.67;;;1.10;;
15482;SDS011;7843;50.330;7.312;2023-01-10T03:57:40;3.50;;;1.35;;
15482;SDS011;7843;50.330;7.312;2023-01-10T04:00:08;2.22;;;0.95;;
15482;SDS011;7843;50.330;7.312;2023-01-10T04:02:35;2.08;;;1.02;;
15482;SDS011;7843;50.330;7.312;2023-01-10T04:05:02;2.70;;;1.13;;
15482;SDS011;7843;50.330;7.312;2023-01-10T04:07:29;5.85;;;1.70;;
15482;SDS011;7843;50.330;7.312;2023-01-10T04:09:56;3.28;;;1.65;;
15482;SDS011;7843;50.330;7.312;2023-01-10T04:12:23;5.00;;;1.70;;
15482;SDS011;7843;50.330;7.312;2023-01-10T04:14:49;1.33;;;1.20;;
15482;SDS011;7843;50.330;7.312;2023-01-10T04:17:16;3.00;;;1.65;;
15482;SDS011;7843;50.330;7.312;2023-01-10T04:19:43;4.13;;;1.50;;
15482;SDS011;7843;50.330;7.312;2023-01-10T04:22:10;6.15;;;2.15;;
15482;SDS011;7843;50.330;7.312;2023-01-10T04:24:37;4.77;;;1.90;;
15482;SDS011;7843;50.330;7.312;2023-01-10T04:27:07;2.78;;;1.40;;
15482;SDS011;7843;50.330;7.312;2023-01-10T04:29:33;2.60;;;1.50;;
15482;SDS011;7843;50.330;7.312;2023-01-10T04:32:00;3.53;;;1.88;;
15482;SDS011;7843;50.330;7.312;2023-01-10T04:34:27;4.50;;;2.08;;
15482;SDS011;7843;50.330;7.312;2023-01-10T04:36:54;5.40;;;1.70;;
15482;SDS011;7843;50.330;7.312;2023-01-10T04:39:21;4.10;;;1.65;;
15482;SDS011;7843;50.330;7.312;2023-01-10T04:41:47;3.72;;;1.60;;
15482;SDS011;7843;50.330;7.312;2023-01-10T04:44:14;4.75;;;2.00;;
15482;SDS011;7843;50.330;7.312;2023-01-10T04:46:41;2.70;;;1.70;;
15482;SDS011;7843;50.330;7.312;2023-01-10T04:49:08;6.13;;;1.52;;
15482;SDS011;7843;50.330;7.312;2023-01-10T04:51:35;6.28;;;1.70;;
15482;SDS011;7843;50.330;7.312;2023-01-10T04:54:02;3.15;;;1.60;;
15482;SDS011;7843;50.330;7.312;2023-01-10T04:56:29;5.97;;;1.95;;
15482;SDS011;7843;50.330;7.312;2023-01-10T04:58:55;4.60;;;1.95;;
15482;SDS011;7843;50.330;7.312;2023-01-10T05:01:23;5.00;;;1.67;;
15482;SDS011;7843;50.330;7.312;2023-01-10T05:03:52;1.92;;;1.30;;
15482;SDS011;7843;50.330;7.312;2023-01-10T05:06:20;5.13;;;1.87;;
15482;SDS011;7843;50.330;7.312;2023-01-10T05:08:48;5.32;;;1.75;;
15482;SDS011;7843;50.330;7.312;2023-01-10T05:11:15;1.70;;;1.15;;
15482;SDS011;7843;50.330;7.312;2023-01-10T05:13:42;2.50;;;1.30;;
15482;SDS011;7843;50.330;7.312;2023-01-10T05:16:09;4.43;;;2.08;;
15482;SDS011;7843;50.330;7.312;2023-01-10T05:18:35;3.65;;;1.50;;
15482;SDS011;7843;50.330;7.312;2023-01-10T05:21:03;3.85;;;1.45;;
15482;SDS011;7843;50.330;7.312;2023-01-10T05:23:32;4.53;;;1.42;;
15482;SDS011;7843;50.330;7.312;2023-01-10T05:26:06;4.95;;;1.40;;
15482;SDS011;7843;50.330;7.312;2023-01-10T05:28:34;6.32;;;1.77;;
15482;SDS011;7843;50.330;7.312;2023-01-10T05:31:01;2.22;;;1.27;;
15482;SDS011;7843;50.330;7.312;2023-01-10T05:33:28;2.60;;;1.33;;
15482;SDS011;7843;50.330;7.312;2023-01-10T05:35:54;2.33;;;1.35;;
15482;SDS011;7843;50.330;7.312;2023-01-10T05:38:21;3.97;;;1.48;;
15482;SDS011;7843;50.330;7.312;2023-01-10T05:40:52;1.95;;;1.20;;
15482;SDS011;7843;50.330;7.312;2023-01-10T05:43:21;5.28;;;1.38;;
15482;SDS011;7843;50.330;7.312;2023-01-10T05:45:48;2.92;;;1.10;;
15482;SDS011;7843;50.330;7.312;2023-01-10T05:48:16;6.18;;;1.35;;
15482;SDS011;7843;50.330;7.312;2023-01-10T05:50:43;4.63;;;1.58;;
15482;SDS011;7843;50.330;7.312;2023-01-10T05:53:10;5.63;;;1.52;;
15482;SDS011;7843;50.330;7.312;2023-01-10T05:55:37;3.20;;;1.30;;
15482;SDS011;7843;50.330;7.312;2023-01-10T05:58:03;6.53;;;1.45;;
15482;SDS011;7843;50.330;7.312;2023-01-10T06:00:30;3.55;;;1.30;;
15482;SDS011;7843;50.330;7.312;2023-01-10T06:02:57;3.00;;;1.00;;
15482;SDS011;7843;50.330;7.312;2023-01-10T06:05:23;5.03;;;1.23;;
15482;SDS011;7843;50.330;7.312;2023-01-10T06:07:50;3.20;;;1.30;;
15482;SDS011;7843;50.330;7.312;2023-01-10T06:10:17;7.68;;;1.48;;
15482;SDS011;7843;50.330;7.312;2023-01-10T06:12:43;4.50;;;1.40;;
15482;SDS011;7843;50.330;7.312;2023-01-10T06:15:10;3.10;;;1.60;;
15482;SDS011;7843;50.330;7.312;2023-01-10T06:17:37;4.22;;;1.60;;
15482;SDS011;7843;50.330;7.312;2023-01-10T06:20:03;8.93;;;2.13;;
15482;SDS011;7843;50.330;7.312;2023-01-10T06:22:30;7.25;;;1.38;;
15482;SDS011;7843;50.330;7.312;2023-01-10T06:24:57;4.80;;;1.10;;
15482;SDS011;7843;50.330;7.312;2023-01-10T06:27:25;3.30;;;1.25;;
15482;SDS011;7843;50.330;7.312;2023-01-10T06:29:52;9.07;;;1.73;;
15482;SDS011;7843;50.330;7.312;2023-01-10T06:32:18;6.97;;;1.40;;
15482;SDS011;7843;50.330;7.312;2023-01-10T06:34:45;11.83;;;2.50;;
15482;SDS011;7843;50.330;7.312;2023-01-10T06:37:12;3.23;;;1.00;;
15482;SDS011;7843;50.330;7.312;2023-01-10T06:39:38;4.80;;;1.45;;
15482;SDS011;7843;50.330;7.312;2023-01-10T06:42:05;7.38;;;1.25;;
15482;SDS011;7843;50.330;7.312;2023-01-10T06:44:31;4.28;;;1.02;;
15482;SDS011;7843;50.330;7.312;2023-01-10T06:46:58;11.50;;;1.70;;
15482;SDS011;7843;50.330;7.312;2023-01-10T06:49:25;6.78;;;1.50;;
15482;SDS011;7843;50.330;7.312;2023-01-10T06:51:51;8.27;;;1.60;;
15482;SDS011;7843;50.330;7.312;2023-01-10T06:54:18;6.78;;;1.38;;
15482;SDS011;7843;50.330;7.312;2023-01-10T06:56:46;6.05;;;1.17;;
15482;SDS011;7843;50.330;7.312;2023-01-10T06:59:14;10.48;;;1.83;;
15482;SDS011;7843;50.330;7.312;2023-01-10T07:01:40;7.47;;;1.30;;
15482;SDS011;7843;50.330;7.312;2023-01-10T07:04:07;5.72;;;1.20;;
15482;SDS011;7843;50.330;7.312;2023-01-10T07:06:37;9.38;;;1.88;;
15482;SDS011;7843;50.330;7.312;2023-01-10T07:09:05;5.55;;;1.75;;
15482;SDS011;7843;50.330;7.312;2023-01-10T07:11:33;4.32;;;1.20;;
15482;SDS011;7843;50.330;7.312;2023-01-10T07:14:00;6.03;;;1.45;;
15482;SDS011;7843;50.330;7.312;2023-01-10T07:16:27;5.53;;;1.30;;
15482;SDS011;7843;50.330;7.312;2023-01-10T07:18:54;5.35;;;0.88;;
15482;SDS011;7843;50.330;7.312;2023-01-10T07:21:21;10.23;;;1.40;;
15482;SDS011;7843;50.330;7.312;2023-01-10T07:23:48;4.75;;;1.00;;
15482;SDS011;7843;50.330;7.312;2023-01-10T07:26:15;4.80;;;1.30;;
15482;SDS011;7843;50.330;7.312;2023-01-10T07:28:44;7.28;;;1.55;;
15482;SDS011;7843;50.330;7.312;2023-01-10T07:31:16;4.28;;;0.90;;
15482;SDS011;7843;50.330;7.312;2023-01-10T07:33:44;5.60;;;1.25;;
15482;SDS011;7843;50.330;7.312;2023-01-10T07:36:11;4.70;;;1.70;;
15482;SDS011;7843;50.330;7.312;2023-01-10T07:38:38;8.02;;;1.48;;
15482;SDS011;7843;50.330;7.312;2023-01-10T07:41:05;8.30;;;2.08;;
15482;SDS011;7843;50.330;7.312;2023-01-10T07:43:32;5.57;;;1.50;;
15482;SDS011;7843;50.330;7.312;2023-01-10T07:45:59;6.18;;;1.75;;
15482;SDS011;7843;50.330;7.312;2023-01-10T07:48:27;5.22;;;1.48;;
15482;SDS011;7843;50.330;7.312;2023-01-10T07:50:55;6.53;;;1.27;;
15482;SDS011;7843;50.330;7.312;2023-01-10T07:53:22;7.47;;;1.73;;
15482;SDS011;7843;50.330;7.312;2023-01-10T07:55:49;7.72;;;1.73;;
15482;SDS011;7843;50.330;7.312;2023-01-10T07:58:16;6.30;;;1.80;;
15482;SDS011;7843;50.330;7.312;2023-01-10T08:00:42;6.33;;;1.53;;
15482;SDS011;7843;50.330;7.312;2023-01-10T08:03:11;8.98;;;1.73;;
15482;SDS011;7843;50.330;7.312;2023-01-10T08:05:38;7.03;;;1.73;;
15482;SDS011;7843;50.330;7.312;2023-01-10T08:08:09;7.03;;;1.35;;
15482;SDS011;7843;50.330;7.312;2023-01-10T08:10:37;7.03;;;1.75;;
15482;SDS011;7843;50.330;7.312;2023-01-10T08:13:05;7.63;;;1.70;;
15482;SDS011;7843;50.330;7.312;2023-01-10T08:15:43;7.18;;;1.80;;
15482;SDS011;7843;50.330;7.312;2023-01-10T08:18:12;5.35;;;1.98;;
15482;SDS011;7843;50.330;7.312;2023-01-10T08:20:39;3.85;;;1.50;;
15482;SDS011;7843;50.330;7.312;2023-01-10T08:23:06;9.48;;;1.73;;
15482;SDS011;7843;50.330;7.312;2023-01-10T08:25:33;7.88;;;2.08;;
15482;SDS011;7843;50.330;7.312;2023-01-10T08:27:59;7.25;;;1.73;;
15482;SDS011;7843;50.330;7.312;2023-01-10T08:30:26;8.60;;;2.17;;
15482;SDS011;7843;50.330;7.312;2023-01-10T08:32:53;4.80;;;1.58;;
15482;SDS011;7843;50.330;7.312;2023-01-10T08:35:19;5.53;;;2.25;;
15482;SDS011;7843;50.330;7.312;2023-01-10T08:37:46;6.97;;;2.00;;
15482;SDS011;7843;50.330;7.312;2023-01-10T08:40:13;7.70;;;2.28;;
15482;SDS011;7843;50.330;7.312;2023-01-10T08:42:39;7.15;;;1.73;;
15482;SDS011;7843;50.330;7.312;2023-01-10T08:45:06;5.45;;;1.30;;
15482;SDS011;7843;50.330;7.312;2023-01-10T08:47:33;5.45;;;1.50;;
15482;SDS011;7843;50.330;7.312;2023-01-10T08:50:00;10.40;;;1.70;;
15482;SDS011;7843;50.330;7.312;2023-01-10T08:52:27;5.82;;;1.77;;
15482;SDS011;7843;50.330;7.312;2023-01-10T08:54:54;9.93;;;1.80;;
15482;SDS011;7843;50.330;7.312;2023-01-10T08:57:21;4.07;;;1.38;;
15482;SDS011;7843;50.330;7.312;2023-01-10T08:59:47;9.55;;;1.90;;
15482;SDS011;7843;50.330;7.312;2023-01-10T09:02:14;8.57;;;1.52;;
15482;SDS011;7843;50.330;7.312;2023-01-10T09:04:41;10.07;;;2.38;;
15482;SDS011;7843;50.330;7.312;2023-01-10T09:07:07;11.30;;;2.43;;
15482;SDS011;7843;50.330;7.312;2023-01-10T09:09:35;9.00;;;2.13;;
15482;SDS011;7843;50.330;7.312;2023-01-10T09:12:02;9.48;;;2.33;;
15482;SDS011;7843;50.330;7.312;2023-01-10T09:14:49;11.05;;;2.38;;
15482;SDS011;7843;50.330;7.312;2023-01-10T09:17:16;13.50;;;3.67;;
15482;SDS011;7843;50.330;7.312;2023-01-10T09:19:42;10.85;;;3.63;;
15482;SDS011;7843;50.330;7.312;2023-01-10T09:22:09;9.38;;;3.08;;
15482;SDS011;7843;50.330;7.312;2023-01-10T09:24:36;14.27;;;3.47;;
15482;SDS011;7843;50.330;7.312;2023-01-10T09:27:04;10.03;;;2.80;;
15482;SDS011;7843;50.330;7.312;2023-01-10T09:29:30;9.40;;;2.13;;
15482;SDS011;7843;50.330;7.312;2023-01-10T09:31:57;12.10;;;2.15;;
15482;SDS011;7843;50.330;7.312;2023-01-10T09:34:24;9.77;;;2.45;;
15482;SDS011;7843;50.330;7.312;2023-01-10T09:36:52;16.27;;;3.20;;
15482;SDS011;7843;50.330;7.312;2023-01-10T09:39:19;9.38;;;2.55;;
15482;SDS011;7843;50.330;7.312;2023-01-10T09:44:38;7.80;;;1.97;;
15482;SDS011;7843;50.330;7.312;2023-01-10T09:50:23;9.60;;;2.13;;
15482;SDS011;7843;50.330;7.312;2023-01-10T09:52:55;10.47;;;2.60;;
15482;SDS011;7843;50.330;7.312;2023-01-10T09:55:34;10.50;;;2.08;;
15482;SDS011;7843;50.330;7.312;2023-01-10T09:58:04;8.40;;;2.20;;
15482;SDS011;7843;50.330;7.312;2023-01-10T10:00:50;8.32;;;2.13;;
15482;SDS011;7843;50.330;7.312;2023-01-10T10:03:31;8.27;;;2.10;;
15482;SDS011;7843;50.330;7.312;2023-01-10T10:06:21;8.13;;;1.63;;
15482;SDS011;7843;50.330;7.312;2023-01-10T10:08:48;12.13;;;2.00;;
15482;SDS011;7843;50.330;7.312;2023-01-10T10:11:23;10.87;;;1.97;;
15482;SDS011;7843;50.330;7.312;2023-01-10T10:22:52;10.75;;;2.10;;
15482;SDS011;7843;50.330;7.312;2023-01-10T10:39:49;5.35;;;1.73;;
15482;SDS011;7843;50.330;7.312;2023-01-10T10:42:22;8.95;;;1.88;;
15482;SDS011;7843;50.330;7.312;2023-01-10T10:44:58;7.32;;;1.55;;
15482;SDS011;7843;50.330;7.312;2023-01-10T10:47:31;12.95;;;2.08;;
15482;SDS011;7843;50.330;7.312;2023-01-10T10:50:15;8.00;;;1.70;;
15482;SDS011;7843;50.330;7.312;2023-01-10T10:52:46;8.17;;;1.57;;
15482;SDS011;7843;50.330;7.312;2023-01-10T10:55:14;6.22;;;1.60;;
15482;SDS011;7843;50.330;7.312;2023-01-10T10:57:44;7.05;;;1.73;;
15482;SDS011;7843;50.330;7.312;2023-01-10T11:00:24;5.32;;;1.45;;
15482;SDS011;7843;50.330;7.312;2023-01-10T11:02:52;6.60;;;1.60;;
15482;SDS011;7843;50.330;7.312;2023-01-10T11:05:32;8.23;;;1.40;;
15482;SDS011;7843;50.330;7.312;2023-01-10T11:08:10;9.07;;;2.13;;
15482;SDS011;7843;50.330;7.312;2023-01-10T11:10:53;4.45;;;1.52;;
15482;SDS011;7843;50.330;7.312;2023-01-10T11:13:39;11.20;;;1.88;;
15482;SDS011;7843;50.330;7.312;2023-01-10T11:21:56;8.10;;;1.83;;
15482;SDS011;7843;50.330;7.312;2023-01-10T11:24:27;8.90;;;2.20;;
15482;SDS011;7843;50.330;7.312;2023-01-10T11:27:21;7.82;;;1.67;;
15482;SDS011;7843;50.330;7.312;2023-01-10T11:29:51;13.15;;;2.42;;
15482;SDS011;7843;50.330;7.312;2023-01-10T11:32:36;9.73;;;2.40;;
15482;SDS011;7843;50.330;7.312;2023-01-10T11:35:06;7.90;;;1.90;;
15482;SDS011;7843;50.330;7.312;2023-01-10T11:37:41;8.60;;;2.00;;
15482;SDS011;7843;50.330;7.312;2023-01-10T11:40:24;7.18;;;2.00;;
15482;SDS011;7843;50.330;7.312;2023-01-10T11:42:53;10.50;;;1.98;;
15482;SDS011;7843;50.330;7.312;2023-01-10T11:45:25;10.75;;;2.10;;
15482;SDS011;7843;50.330;7.312;2023-01-10T11:48:06;12.43;;;2.55;;
15482;SDS011;7843;50.330;7.312;2023-01-10T11:50:36;9.00;;;1.90;;
15482;SDS011;7843;50.330;7.312;2023-01-10T11:53:04;5.20;;;1.73;;
15482;SDS011;7843;50.330;7.312;2023-01-10T11:55:33;11.05;;;1.67;;
15482;SDS011;7843;50.330;7.312;2023-01-10T11:58:04;7.10;;;1.70;;
15482;SDS011;7843;50.330;7.312;2023-01-10T12:00:37;7.28;;;2.03;;
15482;SDS011;7843;50.330;7.312;2023-01-10T12:03:40;9.80;;;1.52;;
15482;SDS011;7843;50.330;7.312;2023-01-10T12:06:06;9.27;;;2.10;;
15482;SDS011;7843;50.330;7.312;2023-01-10T12:08:39;8.00;;;1.45;;
15482;SDS011;7843;50.330;7.312;2023-01-10T12:13:50;8.73;;;2.28;;
15482;SDS011;7843;50.330;7.312;2023-01-10T12:16:30;10.27;;;1.70;;
15482;SDS011;7843;50.330;7.312;2023-01-10T12:19:01;9.23;;;2.10;;
15482;SDS011;7843;50.330;7.312;2023-01-10T12:21:39;7.60;;;1.77;;
15482;SDS011;7843;50.330;7.312;2023-01-10T12:24:23;8.00;;;1.93;;
15482;SDS011;7843;50.330;7.312;2023-01-10T12:26:55;7.00;;;2.00;;
15482;SDS011;7843;50.330;7.312;2023-01-10T12:29:23;6.53;;;2.07;;
15482;SDS011;7843;50.330;7.312;2023-01-10T12:32:02;13.13;;;1.98;;
15482;SDS011;7843;50.330;7.312;2023-01-10T12:34:41;9.27;;;1.98;;
15482;SDS011;7843;50.330;7.312;2023-01-10T12:39:57;7.47;;;1.77;;
15482;SDS011;7843;50.330;7.312;2023-01-10T12:42:45;7.93;;;2.20;;
15482;SDS011;7843;50.330;7.312;2023-01-10T12:45:40;7.78;;;2.70;;
15482;SDS011;7843;50.330;7.312;2023-01-10T12:51:22;12.68;;;2.28;;
15482;SDS011;7843;50.330;7.312;2023-01-10T12:53:54;7.75;;;1.40;;
15482;SDS011;7843;50.330;7.312;2023-01-10T12:56:26;9.38;;;2.63;;
15482;SDS011;7843;50.330;7.312;2023-01-10T12:58:59;9.23;;;2.30;;
15482;SDS011;7843;50.330;7.312;2023-01-10T13:01:34;5.93;;;1.63;;
15482;SDS011;7843;50.330;7.312;2023-01-10T13:04:06;9.00;;;2.17;;
15482;SDS011;7843;50.330;7.312;2023-01-10T13:06:36;9.52;;;2.00;;
15482;SDS011;7843;50.330;7.312;2023-01-10T13:09:10;10.60;;;1.87;;
15482;SDS011;7843;50.330;7.312;2023-01-10T13:14:37;12.15;;;2.92;;
15482;SDS011;7843;50.330;7.312;2023-01-10T13:22:47;13.45;;;2.92;;
15482;SDS011;7843;50.330;7.312;2023-01-10T13:30:53;9.90;;;2.30;;
15482;SDS011;7843;50.330;7.312;2023-01-10T13:33:23;14.13;;;4.03;;
15482;SDS011;7843;50.330;7.312;2023-01-10T13:35:52;11.00;;;3.05;;
15482;SDS011;7843;50.330;7.312;2023-01-10T13:38:29;9.63;;;1.77;;
15482;SDS011;7843;50.330;7.312;2023-01-10T13:41:01;10.38;;;2.88;;
15482;SDS011;7843;50.330;7.312;2023-01-10T13:51:16;7.85;;;2.42;;
15482;SDS011;7843;50.330;7.312;2023-01-10T13:56:33;8.93;;;3.00;;
15482;SDS011;7843;50.330;7.312;2023-01-10T13:59:11;8.13;;;2.33;;
15482;SDS011;7843;50.330;7.312;2023-01-10T14:02:12;14.10;;;3.10;;
15482;SDS011;7843;50.330;7.312;2023-01-10T14:04:59;9.40;;;2.67;;
15482;SDS011;7843;50.330;7.312;2023-01-10T14:07:29;10.68;;;2.60;;
15482;SDS011;7843;50.330;7.312;2023-01-10T14:10:01;9.23;;;1.80;;
15482;SDS011;7843;50.330;7.312;2023-01-10T14:12:36;8.52;;;2.15;;
15482;SDS011;7843;50.330;7.312;2023-01-10T14:18:07;11.35;;;2.40;;
15482;SDS011;7843;50.330;7.312;2023-01-10T14:20:54;6.45;;;1.90;;
15482;SDS011;7843;50.330;7.312;2023-01-10T14:26:01;8.75;;;2.22;;
15482;SDS011;7843;50.330;7.312;2023-01-10T14:28:30;9.35;;;3.03;;
15482;SDS011;7843;50.330;7.312;2023-01-10T14:31:01;9.05;;;2.58;;
15482;SDS011;7843;50.330;7.312;2023-01-10T14:33:32;10.13;;;3.58;;
15482;SDS011;7843;50.330;7.312;2023-01-10T14:36:06;10.97;;;2.47;;
15482;SDS011;7843;50.330;7.312;2023-01-10T14:38:39;11.80;;;2.65;;
15482;SDS011;7843;50.330;7.312;2023-01-10T14:43:53;6.85;;;1.98;;
15482;SDS011;7843;50.330;7.312;2023-01-10T14:46:25;9.63;;;2.40;;
15482;SDS011;7843;50.330;7.312;2023-01-10T14:48:57;7.97;;;1.80;;
15482;SDS011;7843;50.330;7.312;2023-01-10T14:51:26;7.20;;;1.70;;
15482;SDS011;7843;50.330;7.312;2023-01-10T14:54:01;6.85;;;1.98;;
15482;SDS011;7843;50.330;7.312;2023-01-10T14:56:36;7.80;;;2.72;;
15482;SDS011;7843;50.330;7.312;2023-01-10T14:59:32;12.27;;;2.30;;
15482;SDS011;7843;50.330;7.312;2023-01-10T15:02:22;8.18;;;2.08;;
15482;SDS011;7843;50.330;7.312;2023-01-10T15:04:57;9.17;;;2.10;;
15482;SDS011;7843;50.330;7.312;2023-01-10T15:07:34;7.82;;;1.63;;
15482;SDS011;7843;50.330;7.312;2023-01-10T15:10:14;11.18;;;1.90;;
15482;SDS011;7843;50.330;7.312;2023-01-10T15:12:51;12.77;;;2.20;;
15482;SDS011;7843;50.330;7.312;2023-01-10T15:15:21;14.88;;;2.25;;
15482;SDS011;7843;50.330;7.312;2023-01-10T15:17:53;4.90;;;1.60;;
15482;SDS011;7843;50.330;7.312;2023-01-10T15:20:20;6.88;;;2.17;;
15482;SDS011;7843;50.330;7.312;2023-01-10T15:22:59;12.60;;;2.40;;
15482;SDS011;7843;50.330;7.312;2023-01-10T15:25:28;9.82;;;2.67;;
15482;SDS011;7843;50.330;7.312;2023-01-10T15:27:55;10.18;;;2.40;;
15482;SDS011;7843;50.330;7.312;2023-01-10T15:30:24;9.20;;;2.38;;
15482;SDS011;7843;50.330;7.312;2023-01-10T15:32:56;10.55;;;2.13;;
15482;SDS011;7843;50.330;7.312;2023-01-10T15:35:28;7.70;;;1.92;;
15482;SDS011;7843;50.330;7.312;2023-01-10T15:38:02;6.28;;;1.83;;
15482;SDS011;7843;50.330;7.312;2023-01-10T15:40:35;11.07;;;2.78;;
15482;SDS011;7843;50.330;7.312;2023-01-10T15:45:49;10.57;;;1.73;;
15482;SDS011;7843;50.330;7.312;2023-01-10T15:56:47;11.43;;;2.10;;
15482;SDS011;7843;50.330;7.312;2023-01-10T16:04:47;10.38;;;2.03;;
15482;SDS011;7843;50.330;7.312;2023-01-10T16:07:20;8.55;;;1.83;;
15482;SDS011;7843;50.330;7.312;2023-01-10T16:09:48;11.52;;;3.05;;
15482;SDS011;7843;50.330;7.312;2023-01-10T16:12:22;12.05;;;2.42;;
15482;SDS011;7843;50.330;7.312;2023-01-10T16:15:16;15.02;;;2.40;;
15482;SDS011;7843;50.330;7.312;2023-01-10T16:17:46;10.77;;;2.30;;
15482;SDS011;7843;50.330;7.312;2023-01-10T16:20:14;10.95;;;2.10;;
15482;SDS011;7843;50.330;7.312;2023-01-10T16:22:42;15.65;;;3.50;;
15482;SDS011;7843;50.330;7.312;2023-01-10T16:25:14;15.30;;;3.72;;
15482;SDS011;7843;50.330;7.312;2023-01-10T16:27:42;10.30;;;2.67;;
15482;SDS011;7843;50.330;7.312;2023-01-10T16:30:13;11.73;;;3.17;;
15482;SDS011;7843;50.330;7.312;2023-01-10T16:32:48;10.32;;;2.58;;
15482;SDS011;7843;50.330;7.312;2023-01-10T16:35:15;6.82;;;2.00;;
15482;SDS011;7843;50.330;7.312;2023-01-10T16:37:43;6.55;;;1.85;;
15482;SDS011;7843;50.330;7.312;2023-01-10T16:40:18;12.10;;;2.47;;
15482;SDS011;7843;50.330;7.312;2023-01-10T16:42:47;11.48;;;3.08;;
15482;SDS011;7843;50.330;7.312;2023-01-10T16:45:33;8.88;;;2.25;;
15482;SDS011;7843;50.330;7.312;2023-01-10T16:48:00;11.15;;;2.33;;
15482;SDS011;7843;50.330;7.312;2023-01-10T16:50:27;9.45;;;3.58;;
15482;SDS011;7843;50.330;7.312;2023-01-10T16:52:54;10.65;;;3.00;;
15482;SDS011;7843;50.330;7.312;2023-01-10T16:55:22;9.18;;;3.25;;
15482;SDS011;7843;50.330;7.312;2023-01-10T16:58:10;9.67;;;2.97;;
15482;SDS011;7843;50.330;7.312;2023-01-10T17:00:39;9.30;;;3.45;;
15482;SDS011;7843;50.330;7.312;2023-01-10T17:03:09;13.40;;;4.40;;
15482;SDS011;7843;50.330;7.312;2023-01-10T17:05:39;13.05;;;2.83;;
15482;SDS011;7843;50.330;7.312;2023-01-10T17:08:08;10.15;;;3.63;;
15482;SDS011;7843;50.330;7.312;2023-01-10T17:10:43;12.70;;;3.83;;
15482;SDS011;7843;50.330;7.312;2023-01-10T17:13:12;14.70;;;3.80;;
15482;SDS011;7843;50.330;7.312;2023-01-10T17:15:45;10.55;;;4.30;;
15482;SDS011;7843;50.330;7.312;2023-01-10T17:18:11;16.63;;;4.47;;
15482;SDS011;7843;50.330;7.312;2023-01-10T17:20:38;12.20;;;2.90;;
15482;SDS011;7843;50.330;7.312;2023-01-10T17:23:04;8.18;;;2.47;;
15482;SDS011;7843;50.330;7.312;2023-01-10T17:25:31;6.00;;;1.80;;
15482;SDS011;7843;50.330;7.312;2023-01-10T17:27:58;6.75;;;1.90;;
15482;SDS011;7843;50.330;7.312;2023-01-10T17:30:24;5.45;;;2.03;;
15482;SDS011;7843;50.330;7.312;2023-01-10T17:32:51;3.65;;;1.73;;